sensor_id;sensor_type;location;lat;lon;timestamp;temperature;humidity
420;DHT22;42600;54.408;13.016;2024-01-30T00:00:14;3.30;92.70
420;DHT22;42600;54.408;13.016;2024-01-30T00:02:40;3.20;92.70
420;DHT22;42600;54.408;13.016;2024-01-30T00:05:08;3.20;92.70
420;DHT22;42600;54.408;13.016;2024-01-30T00:07:35;3.20;92.70
420;DHT22;42600;54.408;13.016;2024-01-30T00:10:01;3.20;92.70
420;DHT22;42600;54.408;13.016;2024-01-30T00:12:28;3.30;92.70
420;DHT22;42600;54.408;13.016;2024-01-30T00:14:56;3.20;92.70
420;DHT22;42600;54.408;13.016;2024-01-30T00:17:23;3.10;92.70
420;DHT22;42600;54.408;13.016;2024-01-30T00:19:50;3.00;92.70
420;DHT22;42600;54.408;13.016;2024-01-30T00:22:17;2.90;92.70
420;DHT22;42600;54.408;13.016;2024-01-30T00:24:44;2.80;92.70
420;DHT22;42600;54.408;13.016;2024-01-30T00:27:10;2.70;92.70
420;DHT22;42600;54.408;13.016;2024-01-30T00:29:37;2.70;92.70
420;DHT22;42600;54.408;13.016;2024-01-30T00:32:06;2.60;92.70
420;DHT22;42600;54.408;13.016;2024-01-30T00:34:32;2.60;92.70
420;DHT22;42600;54.408;13.016;2024-01-30T00:36:59;2.60;92.70
420;DHT22;42600;54.408;13.016;2024-01-30T00:39:25;2.70;92.70
420;DHT22;42600;54.408;13.016;2024-01-30T00:41:52;3.10;92.70
420;DHT22;42600;54.408;13.016;2024-01-30T00:44:18;3.20;92.70
420;DHT22;42600;54.408;13.016;2024-01-30T00:46:45;3.10;92.70
420;DHT22;42600;54.408;13.016;2024-01-30T00:49:13;3.00;92.70
420;DHT22;42600;54.408;13.016;2024-01-30T00:51:40;2.90;92.70
420;DHT22;42600;54.408;13.016;2024-01-30T00:54:06;2.90;92.70
420;DHT22;42600;54.408;13.016;2024-01-30T00:56:33;3.00;92.70
420;DHT22;42600;54.408;13.016;2024-01-30T00:59:00;3.10;92.70
420;DHT22;42600;54.408;13.016;2024-01-30T01:01:26;3.20;92.70
420;DHT22;42600;54.408;13.016;2024-01-30T01:03:53;3.20;92.70
420;DHT22;42600;54.408;13.016;2024-01-30T01:06:21;3.20;92.70
420;DHT22;42600;54.408;13.016;2024-01-30T01:08:47;3.30;92.70
420;DHT22;42600;54.408;13.016;2024-01-30T01:11:15;3.30;92.70
420;DHT22;42600;54.408;13.016;2024-01-30T01:13:41;3.10;92.70
420;DHT22;42600;54.408;13.016;2024-01-30T01:16:08;3.00;92.70
420;DHT22;42600;54.408;13.016;2024-01-30T01:18:34;2.90;92.70
420;DHT22;42600;54.408;13.016;2024-01-30T01:21:01;2.80;92.70
420;DHT22;42600;54.408;13.016;2024-01-30T01:23:29;2.70;92.70
420;DHT22;42600;54.408;13.016;2024-01-30T01:25:55;2.70;92.70
420;DHT22;42600;54.408;13.016;2024-01-30T01:28:22;2.80;92.70
420;DHT22;42600;54.408;13.016;2024-01-30T01:30:48;3.00;92.70
420;DHT22;42600;54.408;13.016;2024-01-30T01:33:15;3.20;92.70
420;DHT22;42600;54.408;13.016;2024-01-30T01:35:41;3.20;92.70
420;DHT22;42600;54.408;13.016;2024-01-30T01:38:08;3.30;92.70
420;DHT22;42600;54.408;13.016;2024-01-30T01:40:36;3.40;92.70
420;DHT22;42600;54.408;13.016;2024-01-30T01:43:05;3.40;92.70
420;DHT22;42600;54.408;13.016;2024-01-30T01:45:32;3.40;92.70
420;DHT22;42600;54.408;13.016;2024-01-30T01:47:58;3.40;92.70
420;DHT22;42600;54.408;13.016;2024-01-30T01:50:25;3.30;92.70
420;DHT22;42600;54.408;13.016;2024-01-30T01:52:53;3.40;92.70
420;DHT22;42600;54.408;13.016;2024-01-30T01:55:21;3.40;92.70
420;DHT22;42600;54.408;13.016;2024-01-30T01:57:52;3.20;92.70
420;DHT22;42600;54.408;13.016;2024-01-30T02:00:19;3.20;92.70
420;DHT22;42600;54.408;13.016;2024-01-30T02:02:46;3.20;92.70
420;DHT22;42600;54.408;13.016;2024-01-30T02:05:14;3.30;92.70
420;DHT22;42600;54.408;13.016;2024-01-30T02:07:41;3.40;92.70
420;DHT22;42600;54.408;13.016;2024-01-30T02:10:08;3.30;92.70
420;DHT22;42600;54.408;13.016;2024-01-30T02:12:35;3.30;92.70
420;DHT22;42600;54.408;13.016;2024-01-30T02:15:04;3.20;92.70
420;DHT22;42600;54.408;13.016;2024-01-30T02:17:32;3.20;92.70
420;DHT22;42600;54.408;13.016;2024-01-30T02:19:59;3.10;92.70
420;DHT22;42600;54.408;13.016;2024-01-30T02:22:27;3.10;92.70
420;DHT22;42600;54.408;13.016;2024-01-30T02:24:54;3.10;92.70
420;DHT22;42600;54.408;13.016;2024-01-30T02:27:20;3.10;92.70
420;DHT22;42600;54.408;13.016;2024-01-30T02:29:47;3.30;92.70
420;DHT22;42600;54.408;13.016;2024-01-30T02:32:13;3.40;92.70
420;DHT22;42600;54.408;13.016;2024-01-30T02:34:40;3.40;92.70
420;DHT22;42600;54.408;13.016;2024-01-30T02:37:06;3.50;92.70
420;DHT22;42600;54.408;13.016;2024-01-30T02:39:34;3.50;92.70
420;DHT22;42600;54.408;13.016;2024-01-30T02:42:01;3.60;92.70
420;DHT22;42600;54.408;13.016;2024-01-30T02:44:28;3.70;92.70
420;DHT22;42600;54.408;13.016;2024-01-30T02:46:55;3.70;92.70
420;DHT22;42600;54.408;13.016;2024-01-30T02:49:22;3.70;92.70
420;DHT22;42600;54.408;13.016;2024-01-30T02:51:49;3.70;92.70
420;DHT22;42600;54.408;13.016;2024-01-30T02:54:16;3.80;92.70
420;DHT22;42600;54.408;13.016;2024-01-30T02:56:44;3.90;92.70
420;DHT22;42600;54.408;13.016;2024-01-30T02:59:10;3.90;92.70
420;DHT22;42600;54.408;13.016;2024-01-30T03:01:42;3.90;92.70
420;DHT22;42600;54.408;13.016;2024-01-30T03:04:09;3.80;92.70
420;DHT22;42600;54.408;13.016;2024-01-30T03:06:36;3.80;92.70
420;DHT22;42600;54.408;13.016;2024-01-30T03:09:02;3.80;92.70
420;DHT22;42600;54.408;13.016;2024-01-30T03:11:30;3.90;92.70
420;DHT22;42600;54.408;13.016;2024-01-30T03:13:58;3.90;92.70
420;DHT22;42600;54.408;13.016;2024-01-30T03:16:24;3.90;92.70
420;DHT22;42600;54.408;13.016;2024-01-30T03:18:51;3.90;92.70
420;DHT22;42600;54.408;13.016;2024-01-30T03:21:17;3.80;92.70
420;DHT22;42600;54.408;13.016;2024-01-30T03:23:44;3.80;92.70
420;DHT22;42600;54.408;13.016;2024-01-30T03:26:10;3.70;92.70
420;DHT22;42600;54.408;13.016;2024-01-30T03:28:38;3.70;92.70
420;DHT22;42600;54.408;13.016;2024-01-30T03:31:06;3.70;92.70
420;DHT22;42600;54.408;13.016;2024-01-30T03:33:33;3.70;92.70
420;DHT22;42600;54.408;13.016;2024-01-30T03:36:03;3.80;92.70
420;DHT22;42600;54.408;13.016;2024-01-30T03:38:29;4.00;92.70
420;DHT22;42600;54.408;13.016;2024-01-30T03:40:58;4.00;92.70
420;DHT22;42600;54.408;13.016;2024-01-30T03:43:24;4.00;92.70
420;DHT22;42600;54.408;13.016;2024-01-30T03:45:51;4.10;92.70
420;DHT22;42600;54.408;13.016;2024-01-30T03:48:20;4.10;92.70
420;DHT22;42600;54.408;13.016;2024-01-30T03:50:48;4.00;92.70
420;DHT22;42600;54.408;13.016;2024-01-30T03:53:15;4.00;92.70
420;DHT22;42600;54.408;13.016;2024-01-30T03:55:42;4.10;92.70
420;DHT22;42600;54.408;13.016;2024-01-30T03:58:08;4.10;92.70
420;DHT22;42600;54.408;13.016;2024-01-30T04:00:35;4.00;92.70
420;DHT22;42600;54.408;13.016;2024-01-30T04:03:01;4.10;92.70
420;DHT22;42600;54.408;13.016;2024-01-30T04:05:29;4.10;92.70
420;DHT22;42600;54.408;13.016;2024-01-30T04:07:56;4.10;92.70
420;DHT22;42600;54.408;13.016;2024-01-30T04:10:23;4.10;92.70
420;DHT22;42600;54.408;13.016;2024-01-30T04:12:50;4.20;92.70
420;DHT22;42600;54.408;13.016;2024-01-30T04:15:17;4.20;92.70
420;DHT22;42600;54.408;13.016;2024-01-30T04:17:43;4.10;92.70
420;DHT22;42600;54.408;13.016;2024-01-30T04:20:13;4.10;92.70
420;DHT22;42600;54.408;13.016;2024-01-30T04:22:42;4.00;92.70
420;DHT22;42600;54.408;13.016;2024-01-30T04:25:08;4.00;92.70
420;DHT22;42600;54.408;13.016;2024-01-30T04:27:35;4.00;92.70
420;DHT22;42600;54.408;13.016;2024-01-30T04:30:02;4.00;92.70
420;DHT22;42600;54.408;13.016;2024-01-30T04:32:29;3.90;92.70
420;DHT22;42600;54.408;13.016;2024-01-30T04:34:55;4.00;92.70
420;DHT22;42600;54.408;13.016;2024-01-30T04:37:23;3.90;92.70
420;DHT22;42600;54.408;13.016;2024-01-30T04:39:51;3.90;92.70
420;DHT22;42600;54.408;13.016;2024-01-30T04:42:18;3.90;92.70
420;DHT22;42600;54.408;13.016;2024-01-30T04:44:44;4.00;92.70
420;DHT22;42600;54.408;13.016;2024-01-30T04:47:11;4.00;92.70
420;DHT22;42600;54.408;13.016;2024-01-30T04:49:38;4.00;92.70
420;DHT22;42600;54.408;13.016;2024-01-30T04:52:05;4.10;92.70
420;DHT22;42600;54.408;13.016;2024-01-30T04:54:32;4.10;92.70
420;DHT22;42600;54.408;13.016;2024-01-30T04:56:59;4.10;92.70
420;DHT22;42600;54.408;13.016;2024-01-30T04:59:26;4.10;92.70
420;DHT22;42600;54.408;13.016;2024-01-30T05:01:53;4.20;92.70
420;DHT22;42600;54.408;13.016;2024-01-30T05:04:19;4.20;92.70
420;DHT22;42600;54.408;13.016;2024-01-30T05:06:47;4.30;92.70
420;DHT22;42600;54.408;13.016;2024-01-30T05:09:14;4.20;92.70
420;DHT22;42600;54.408;13.016;2024-01-30T05:11:40;4.10;92.70
420;DHT22;42600;54.408;13.016;2024-01-30T05:14:08;4.10;92.70
420;DHT22;42600;54.408;13.016;2024-01-30T05:16:36;4.00;92.70
420;DHT22;42600;54.408;13.016;2024-01-30T05:19:03;4.10;92.70
420;DHT22;42600;54.408;13.016;2024-01-30T05:21:30;4.10;92.70
420;DHT22;42600;54.408;13.016;2024-01-30T05:23:57;4.10;92.70
420;DHT22;42600;54.408;13.016;2024-01-30T05:26:23;4.10;92.70
420;DHT22;42600;54.408;13.016;2024-01-30T05:28:50;4.00;92.70
420;DHT22;42600;54.408;13.016;2024-01-30T05:31:18;3.90;92.70
420;DHT22;42600;54.408;13.016;2024-01-30T05:33:45;3.90;92.70
420;DHT22;42600;54.408;13.016;2024-01-30T05:36:12;3.90;92.70
420;DHT22;42600;54.408;13.016;2024-01-30T05:38:39;4.10;92.70
420;DHT22;42600;54.408;13.016;2024-01-30T05:41:06;4.10;92.70
420;DHT22;42600;54.408;13.016;2024-01-30T05:43:32;4.00;92.70
420;DHT22;42600;54.408;13.016;2024-01-30T05:45:59;3.90;92.70
420;DHT22;42600;54.408;13.016;2024-01-30T05:48:27;3.80;92.70
420;DHT22;42600;54.408;13.016;2024-01-30T05:50:54;3.80;92.70
420;DHT22;42600;54.408;13.016;2024-01-30T05:53:20;3.70;92.70
420;DHT22;42600;54.408;13.016;2024-01-30T05:55:47;3.70;92.70
420;DHT22;42600;54.408;13.016;2024-01-30T05:58:13;3.70;92.70
420;DHT22;42600;54.408;13.016;2024-01-30T06:00:40;3.60;92.70
420;DHT22;42600;54.408;13.016;2024-01-30T06:03:07;3.60;92.70
420;DHT22;42600;54.408;13.016;2024-01-30T06:05:35;3.50;92.70
420;DHT22;42600;54.408;13.016;2024-01-30T06:08:02;3.50;92.70
420;DHT22;42600;54.408;13.016;2024-01-30T06:10:28;3.50;92.70
420;DHT22;42600;54.408;13.016;2024-01-30T06:12:55;3.50;92.70
420;DHT22;42600;54.408;13.016;2024-01-30T06:15:21;3.50;92.70
420;DHT22;42600;54.408;13.016;2024-01-30T06:17:48;3.50;92.70
420;DHT22;42600;54.408;13.016;2024-01-30T06:20:15;3.50;92.70
420;DHT22;42600;54.408;13.016;2024-01-30T06:22:43;3.50;92.70
420;DHT22;42600;54.408;13.016;2024-01-30T06:25:09;3.60;92.70
420;DHT22;42600;54.408;13.016;2024-01-30T06:27:37;3.60;92.70
420;DHT22;42600;54.408;13.016;2024-01-30T06:30:05;3.60;92.70
420;DHT22;42600;54.408;13.016;2024-01-30T06:32:31;3.70;92.70
420;DHT22;42600;54.408;13.016;2024-01-30T06:34:59;3.80;92.70
420;DHT22;42600;54.408;13.016;2024-01-30T06:37:26;3.90;92.70
420;DHT22;42600;54.408;13.016;2024-01-30T06:39:54;3.90;92.70
420;DHT22;42600;54.408;13.016;2024-01-30T06:42:20;4.00;92.70
420;DHT22;42600;54.408;13.016;2024-01-30T06:44:47;4.00;92.70
420;DHT22;42600;54.408;13.016;2024-01-30T06:47:13;3.90;92.70
420;DHT22;42600;54.408;13.016;2024-01-30T06:49:40;4.00;92.70
420;DHT22;42600;54.408;13.016;2024-01-30T06:52:07;4.00;92.70
420;DHT22;42600;54.408;13.016;2024-01-30T06:54:34;4.00;92.70
420;DHT22;42600;54.408;13.016;2024-01-30T06:57:02;4.10;92.70
420;DHT22;42600;54.408;13.016;2024-01-30T06:59:29;4.10;92.70
420;DHT22;42600;54.408;13.016;2024-01-30T07:01:55;4.20;92.70
420;DHT22;42600;54.408;13.016;2024-01-30T07:04:22;4.20;92.70
420;DHT22;42600;54.408;13.016;2024-01-30T07:06:49;4.30;92.70
420;DHT22;42600;54.408;13.016;2024-01-30T07:09:15;4.30;92.70
420;DHT22;42600;54.408;13.016;2024-01-30T07:11:42;4.40;92.70
420;DHT22;42600;54.408;13.016;2024-01-30T07:14:10;4.30;92.70
420;DHT22;42600;54.408;13.016;2024-01-30T07:16:37;4.40;92.70
420;DHT22;42600;54.408;13.016;2024-01-30T07:19:03;4.30;92.70
420;DHT22;42600;54.408;13.016;2024-01-30T07:21:30;4.30;92.70
420;DHT22;42600;54.408;13.016;2024-01-30T07:23:56;4.30;92.70
420;DHT22;42600;54.408;13.016;2024-01-30T07:26:23;4.40;92.70
420;DHT22;42600;54.408;13.016;2024-01-30T07:28:50;4.40;92.70
420;DHT22;42600;54.408;13.016;2024-01-30T07:31:18;4.40;92.70
420;DHT22;42600;54.408;13.016;2024-01-30T07:33:46;4.40;92.70
420;DHT22;42600;54.408;13.016;2024-01-30T07:36:12;4.50;92.70
420;DHT22;42600;54.408;13.016;2024-01-30T07:38:39;4.60;92.70
420;DHT22;42600;54.408;13.016;2024-01-30T07:41:05;4.60;92.70
420;DHT22;42600;54.408;13.016;2024-01-30T07:43:32;4.50;92.70
420;DHT22;42600;54.408;13.016;2024-01-30T07:45:59;4.50;92.70
420;DHT22;42600;54.408;13.016;2024-01-30T07:48:27;4.50;92.70
420;DHT22;42600;54.408;13.016;2024-01-30T07:50:54;4.40;92.70
420;DHT22;42600;54.408;13.016;2024-01-30T07:53:20;4.40;92.70
420;DHT22;42600;54.408;13.016;2024-01-30T07:58:06;4.40;92.70
420;DHT22;42600;54.408;13.016;2024-01-30T08:00:33;4.30;92.70
420;DHT22;42600;54.408;13.016;2024-01-30T08:02:59;4.30;92.70
420;DHT22;42600;54.408;13.016;2024-01-30T08:05:26;4.30;92.70
420;DHT22;42600;54.408;13.016;2024-01-30T08:07:52;4.30;92.70
420;DHT22;42600;54.408;13.016;2024-01-30T10:52:57;5.30;92.70
420;DHT22;42600;54.408;13.016;2024-01-30T10:55:27;5.60;92.70
420;DHT22;42600;54.408;13.016;2024-01-30T11:00:30;5.70;92.70
420;DHT22;42600;54.408;13.016;2024-01-30T11:02:59;5.80;92.70
420;DHT22;42600;54.408;13.016;2024-01-30T11:05:27;5.80;92.70
420;DHT22;42600;54.408;13.016;2024-01-30T11:24:38;6.00;92.70
420;DHT22;42600;54.408;13.016;2024-01-30T11:33:14;6.10;92.70
420;DHT22;42600;54.408;13.016;2024-01-30T11:35:42;6.20;92.70
420;DHT22;42600;54.408;13.016;2024-01-30T11:38:10;6.20;92.70
420;DHT22;42600;54.408;13.016;2024-01-30T11:50:46;6.30;92.70
420;DHT22;42600;54.408;13.016;2024-01-30T11:53:13;6.40;92.70
420;DHT22;42600;54.408;13.016;2024-01-30T11:56:17;6.40;92.70
420;DHT22;42600;54.408;13.016;2024-01-30T11:58:44;6.50;92.70
420;DHT22;42600;54.408;13.016;2024-01-30T12:04:29;6.60;92.70
420;DHT22;42600;54.408;13.016;2024-01-30T12:07:31;6.70;92.70
420;DHT22;42600;54.408;13.016;2024-01-30T12:09:58;6.70;92.70
420;DHT22;42600;54.408;13.016;2024-01-30T12:12:25;6.70;92.70
420;DHT22;42600;54.408;13.016;2024-01-30T12:14:53;6.80;92.70
420;DHT22;42600;54.408;13.016;2024-01-30T12:20:25;6.90;92.70
420;DHT22;42600;54.408;13.016;2024-01-30T12:22:53;6.90;92.70
420;DHT22;42600;54.408;13.016;2024-01-30T12:25:20;6.90;92.70
420;DHT22;42600;54.408;13.016;2024-01-30T12:27:50;6.90;92.70
420;DHT22;42600;54.408;13.016;2024-01-30T12:30:20;7.00;92.70
420;DHT22;42600;54.408;13.016;2024-01-30T12:32:50;7.00;92.70
420;DHT22;42600;54.408;13.016;2024-01-30T12:35:17;7.10;92.70
420;DHT22;42600;54.408;13.016;2024-01-30T12:37:45;7.10;92.70
420;DHT22;42600;54.408;13.016;2024-01-30T12:40:14;7.10;92.70
420;DHT22;42600;54.408;13.016;2024-01-30T12:42:41;7.20;92.70
420;DHT22;42600;54.408;13.016;2024-01-30T12:45:09;7.20;92.70
420;DHT22;42600;54.408;13.016;2024-01-30T12:47:36;7.20;92.70
420;DHT22;42600;54.408;13.016;2024-01-30T12:50:03;7.30;92.70
420;DHT22;42600;54.408;13.016;2024-01-30T12:56:04;7.30;92.70
420;DHT22;42600;54.408;13.016;2024-01-30T12:58:31;7.40;92.70
420;DHT22;42600;54.408;13.016;2024-01-30T13:00:58;7.40;92.70
420;DHT22;42600;54.408;13.016;2024-01-30T13:03:25;7.40;92.70
420;DHT22;42600;54.408;13.016;2024-01-30T13:05:54;7.40;92.70
420;DHT22;42600;54.408;13.016;2024-01-30T13:08:22;7.50;92.70
420;DHT22;42600;54.408;13.016;2024-01-30T13:10:48;7.50;92.70
420;DHT22;42600;54.408;13.016;2024-01-30T13:13:19;7.50;92.70
420;DHT22;42600;54.408;13.016;2024-01-30T13:15:46;7.50;92.70
420;DHT22;42600;54.408;13.016;2024-01-30T13:18:13;7.50;92.70
420;DHT22;42600;54.408;13.016;2024-01-30T13:20:40;7.50;92.70
420;DHT22;42600;54.408;13.016;2024-01-30T13:23:07;7.50;92.70
420;DHT22;42600;54.408;13.016;2024-01-30T13:25:36;7.60;92.70
420;DHT22;42600;54.408;13.016;2024-01-30T13:28:04;7.60;92.70
420;DHT22;42600;54.408;13.016;2024-01-30T13:30:32;7.60;92.70
420;DHT22;42600;54.408;13.016;2024-01-30T13:32:58;7.60;92.70
420;DHT22;42600;54.408;13.016;2024-01-30T13:35:25;7.60;92.70
420;DHT22;42600;54.408;13.016;2024-01-30T13:37:52;7.60;92.70
420;DHT22;42600;54.408;13.016;2024-01-30T13:40:19;7.60;92.70
420;DHT22;42600;54.408;13.016;2024-01-30T13:42:48;7.60;92.70
420;DHT22;42600;54.408;13.016;2024-01-30T13:45:14;7.60;92.70
420;DHT22;42600;54.408;13.016;2024-01-30T13:47:42;7.60;92.70
420;DHT22;42600;54.408;13.016;2024-01-30T13:50:09;7.60;92.70
420;DHT22;42600;54.408;13.016;2024-01-30T13:52:40;7.50;92.70
420;DHT22;42600;54.408;13.016;2024-01-30T13:55:07;7.50;92.70
420;DHT22;42600;54.408;13.016;2024-01-30T13:57:47;7.50;92.70
420;DHT22;42600;54.408;13.016;2024-01-30T14:00:15;7.60;92.70
420;DHT22;42600;54.408;13.016;2024-01-30T14:05:59;7.50;92.70
420;DHT22;42600;54.408;13.016;2024-01-30T14:08:26;7.50;92.70
420;DHT22;42600;54.408;13.016;2024-01-30T14:10:54;7.60;92.70
420;DHT22;42600;54.408;13.016;2024-01-30T14:13:22;7.50;92.70
420;DHT22;42600;54.408;13.016;2024-01-30T14:15:58;7.50;92.70
420;DHT22;42600;54.408;13.016;2024-01-30T14:18:51;7.50;92.70
420;DHT22;42600;54.408;13.016;2024-01-30T14:21:31;7.50;92.70
420;DHT22;42600;54.408;13.016;2024-01-30T14:24:01;7.60;92.70
420;DHT22;42600;54.408;13.016;2024-01-30T14:26:41;7.50;92.70
420;DHT22;42600;54.408;13.016;2024-01-30T14:29:10;7.50;92.70
420;DHT22;42600;54.408;13.016;2024-01-30T14:31:39;7.50;92.70
420;DHT22;42600;54.408;13.016;2024-01-30T14:37:30;7.50;92.70
420;DHT22;42600;54.408;13.016;2024-01-30T14:39:57;7.50;92.70
420;DHT22;42600;54.408;13.016;2024-01-30T14:42:24;7.50;92.70
420;DHT22;42600;54.408;13.016;2024-01-30T14:44:50;7.40;92.70
420;DHT22;42600;54.408;13.016;2024-01-30T14:47:17;7.40;92.70
420;DHT22;42600;54.408;13.016;2024-01-30T14:49:44;7.40;92.70
420;DHT22;42600;54.408;13.016;2024-01-30T14:52:11;7.50;92.70
420;DHT22;42600;54.408;13.016;2024-01-30T14:54:40;7.40;92.70
420;DHT22;42600;54.408;13.016;2024-01-30T14:57:12;7.40;92.70
420;DHT22;42600;54.408;13.016;2024-01-30T14:59:39;7.40;92.70
420;DHT22;42600;54.408;13.016;2024-01-30T15:02:06;7.30;92.70
420;DHT22;42600;54.408;13.016;2024-01-30T15:04:33;7.30;92.70
420;DHT22;42600;54.408;13.016;2024-01-30T15:07:00;7.30;92.70
420;DHT22;42600;54.408;13.016;2024-01-30T15:09:27;7.30;92.70
420;DHT22;42600;54.408;13.016;2024-01-30T15:11:55;7.30;92.70
420;DHT22;42600;54.408;13.016;2024-01-30T15:14:25;7.40;92.70
420;DHT22;42600;54.408;13.016;2024-01-30T15:16:51;7.30;92.70
420;DHT22;42600;54.408;13.016;2024-01-30T15:19:18;7.40;92.70
420;DHT22;42600;54.408;13.016;2024-01-30T15:21:45;7.30;92.70
420;DHT22;42600;54.408;13.016;2024-01-30T15:24:12;7.30;92.70
420;DHT22;42600;54.408;13.016;2024-01-30T15:26:41;7.20;92.70
420;DHT22;42600;54.408;13.016;2024-01-30T15:32:28;7.20;92.70
420;DHT22;42600;54.408;13.016;2024-01-30T15:34:57;7.20;92.70
420;DHT22;42600;54.408;13.016;2024-01-30T15:37:30;7.20;92.70
420;DHT22;42600;54.408;13.016;2024-01-30T15:39:57;7.20;92.70
420;DHT22;42600;54.408;13.016;2024-01-30T15:42:25;7.20;92.70
420;DHT22;42600;54.408;13.016;2024-01-30T15:52:02;7.10;92.70
420;DHT22;42600;54.408;13.016;2024-01-30T15:54:29;7.10;92.70
420;DHT22;42600;54.408;13.016;2024-01-30T15:56:55;7.10;92.70
420;DHT22;42600;54.408;13.016;2024-01-30T15:59:22;7.10;92.70
420;DHT22;42600;54.408;13.016;2024-01-30T16:01:49;7.00;92.70
420;DHT22;42600;54.408;13.016;2024-01-30T16:04:16;7.00;92.70
420;DHT22;42600;54.408;13.016;2024-01-30T16:06:42;7.00;92.70
420;DHT22;42600;54.408;13.016;2024-01-30T16:09:11;7.00;92.70
420;DHT22;42600;54.408;13.016;2024-01-30T16:11:40;7.00;92.70
420;DHT22;42600;54.408;13.016;2024-01-30T16:14:21;7.00;92.70
420;DHT22;42600;54.408;13.016;2024-01-30T16:16:47;7.00;92.70
420;DHT22;42600;54.408;13.016;2024-01-30T16:19:14;7.00;92.70
420;DHT22;42600;54.408;13.016;2024-01-30T16:21:41;7.00;92.70
420;DHT22;42600;54.408;13.016;2024-01-30T16:24:11;7.00;92.70
420;DHT22;42600;54.408;13.016;2024-01-30T16:26:40;7.00;92.70
420;DHT22;42600;54.408;13.016;2024-01-30T16:29:07;7.00;92.70
420;DHT22;42600;54.408;13.016;2024-01-30T16:31:33;7.00;92.70
420;DHT22;42600;54.408;13.016;2024-01-30T16:34:03;7.00;92.70
420;DHT22;42600;54.408;13.016;2024-01-30T16:36:29;7.00;92.70
420;DHT22;42600;54.408;13.016;2024-01-30T16:38:56;7.00;92.70
420;DHT22;42600;54.408;13.016;2024-01-30T16:41:25;7.00;92.70
420;DHT22;42600;54.408;13.016;2024-01-30T16:43:52;7.00;92.70
420;DHT22;42600;54.408;13.016;2024-01-30T16:46:18;7.00;92.70
420;DHT22;42600;54.408;13.016;2024-01-30T16:48:46;7.00;92.70
420;DHT22;42600;54.408;13.016;2024-01-30T16:51:15;7.10;92.70
420;DHT22;42600;54.408;13.016;2024-01-30T16:53:42;7.00;92.70
420;DHT22;42600;54.408;13.016;2024-01-30T16:56:27;7.00;92.70
420;DHT22;42600;54.408;13.016;2024-01-30T16:58:54;7.10;92.70
420;DHT22;42600;54.408;13.016;2024-01-30T17:01:20;7.10;92.70
420;DHT22;42600;54.408;13.016;2024-01-30T17:03:48;7.10;92.70
420;DHT22;42600;54.408;13.016;2024-01-30T17:06:17;7.00;92.70
420;DHT22;42600;54.408;13.016;2024-01-30T17:08:44;7.10;92.70
420;DHT22;42600;54.408;13.016;2024-01-30T17:11:11;7.00;92.70
420;DHT22;42600;54.408;13.016;2024-01-30T17:23:20;7.10;92.70
420;DHT22;42600;54.408;13.016;2024-01-30T17:25:48;7.10;92.70
420;DHT22;42600;54.408;13.016;2024-01-30T17:28:28;7.10;92.70
420;DHT22;42600;54.408;13.016;2024-01-30T17:30:57;7.10;92.70
420;DHT22;42600;54.408;13.016;2024-01-30T17:33:27;7.10;92.70
420;DHT22;42600;54.408;13.016;2024-01-30T17:39:53;7.10;92.70
420;DHT22;42600;54.408;13.016;2024-01-30T17:42:54;7.20;92.70
420;DHT22;42600;54.408;13.016;2024-01-30T17:45:48;7.20;92.70
420;DHT22;42600;54.408;13.016;2024-01-30T17:55:42;7.20;92.70
420;DHT22;42600;54.408;13.016;2024-01-30T18:02:01;7.30;92.70
420;DHT22;42600;54.408;13.016;2024-01-30T18:05:01;7.30;92.70
420;DHT22;42600;54.408;13.016;2024-01-30T18:12:03;7.30;92.70
420;DHT22;42600;54.408;13.016;2024-01-30T18:15:02;7.30;92.70
420;DHT22;42600;54.408;13.016;2024-01-30T18:18:06;7.30;92.70
420;DHT22;42600;54.408;13.016;2024-01-30T18:21:02;7.30;92.70
420;DHT22;42600;54.408;13.016;2024-01-30T18:23:29;7.30;92.70
420;DHT22;42600;54.408;13.016;2024-01-30T18:25:55;7.30;92.70
420;DHT22;42600;54.408;13.016;2024-01-30T18:28:28;7.40;92.70
420;DHT22;42600;54.408;13.016;2024-01-30T18:30:55;7.40;92.70
420;DHT22;42600;54.408;13.016;2024-01-30T18:33:22;7.40;92.70
420;DHT22;42600;54.408;13.016;2024-01-30T18:35:49;7.40;92.70
420;DHT22;42600;54.408;13.016;2024-01-30T18:38:16;7.40;92.70
420;DHT22;42600;54.408;13.016;2024-01-30T18:40:42;7.40;92.70
420;DHT22;42600;54.408;13.016;2024-01-30T18:43:09;7.40;92.70
420;DHT22;42600;54.408;13.016;2024-01-30T18:45:37;7.40;92.70
420;DHT22;42600;54.408;13.016;2024-01-30T18:48:10;7.50;92.70
420;DHT22;42600;54.408;13.016;2024-01-30T18:50:42;7.40;92.70
420;DHT22;42600;54.408;13.016;2024-01-30T18:53:10;7.50;92.70
420;DHT22;42600;54.408;13.016;2024-01-30T19:05:46;7.60;92.70
420;DHT22;42600;54.408;13.016;2024-01-30T19:08:15;7.60;92.70
420;DHT22;42600;54.408;13.016;2024-01-30T19:10:43;7.60;92.70
420;DHT22;42600;54.408;13.016;2024-01-30T19:13:22;7.60;92.70
420;DHT22;42600;54.408;13.016;2024-01-30T19:21:59;7.70;92.70
420;DHT22;42600;54.408;13.016;2024-01-30T19:28:00;7.70;92.70
420;DHT22;42600;54.408;13.016;2024-01-30T19:30:30;7.70;92.70
420;DHT22;42600;54.408;13.016;2024-01-30T19:33:06;7.70;92.70
420;DHT22;42600;54.408;13.016;2024-01-30T19:35:46;7.70;92.70
420;DHT22;42600;54.408;13.016;2024-01-30T19:38:35;7.70;92.70
420;DHT22;42600;54.408;13.016;2024-01-30T19:41:04;7.70;92.70
420;DHT22;42600;54.408;13.016;2024-01-30T19:43:31;7.80;92.70
420;DHT22;42600;54.408;13.016;2024-01-30T19:46:07;7.80;92.70
420;DHT22;42600;54.408;13.016;2024-01-30T19:48:36;7.80;92.70
420;DHT22;42600;54.408;13.016;2024-01-30T19:54:28;7.80;92.70
420;DHT22;42600;54.408;13.016;2024-01-30T19:56:56;7.80;92.70
420;DHT22;42600;54.408;13.016;2024-01-30T19:59:25;7.80;92.70
420;DHT22;42600;54.408;13.016;2024-01-30T20:01:53;7.80;92.70
420;DHT22;42600;54.408;13.016;2024-01-30T20:04:20;7.80;92.70
420;DHT22;42600;54.408;13.016;2024-01-30T20:06:49;7.80;92.70
420;DHT22;42600;54.408;13.016;2024-01-30T20:09:17;7.80;92.70
420;DHT22;42600;54.408;13.016;2024-01-30T20:11:47;7.80;92.70
420;DHT22;42600;54.408;13.016;2024-01-30T20:14:14;7.80;92.70
420;DHT22;42600;54.408;13.016;2024-01-30T20:16:42;7.80;92.70
420;DHT22;42600;54.408;13.016;2024-01-30T20:19:09;7.80;92.70
420;DHT22;42600;54.408;13.016;2024-01-30T20:21:37;7.80;92.70
420;DHT22;42600;54.408;13.016;2024-01-30T20:24:06;7.80;92.70
420;DHT22;42600;54.408;13.016;2024-01-30T20:26:37;7.80;92.70
420;DHT22;42600;54.408;13.016;2024-01-30T20:29:12;7.80;92.70
420;DHT22;42600;54.408;13.016;2024-01-30T20:31:40;7.90;92.70
420;DHT22;42600;54.408;13.016;2024-01-30T20:34:07;7.90;92.70
420;DHT22;42600;54.408;13.016;2024-01-30T20:36:34;7.90;92.70
420;DHT22;42600;54.408;13.016;2024-01-30T20:39:03;7.90;92.70
420;DHT22;42600;54.408;13.016;2024-01-30T20:41:37;7.90;92.70
420;DHT22;42600;54.408;13.016;2024-01-30T20:44:04;7.90;92.70
420;DHT22;42600;54.408;13.016;2024-01-30T20:46:37;7.90;92.70
420;DHT22;42600;54.408;13.016;2024-01-30T20:49:05;7.90;92.70